Terminal Aerodrome Forecast
Issued by NWS New Orleans/Baton Rouge, LA

Home | Current Version | Previous Version | Text Only | Print | Product List | Glossary On
Versions: 1 2 3 4 5 6 7 8 9 10 11 12
000
FTUS44 KLIX 290500
TAFBTR
TAF
KBTR 290520Z 2906/3006 10003KT P6SM FEW090 SCT250
     FM291500 13007KT P6SM VCSH SCT040 BKN060
      TEMPO 2920/2924 3SM -TSRA SCT030CB BKN040
     FM300200 12005KT P6SM SCT050 BKN100=

USA.gov is the U.S. government's official web portal to all federal, state and local government web resources and services.